createdAt,value
2023-01-27T00:00:47.510Z,0.23
2023-01-27T00:03:18.081Z,0.23
2023-01-27T00:05:48.721Z,0.23
2023-01-27T00:08:19.530Z,0.23
2023-01-27T00:10:50.124Z,0.22
2023-01-27T00:13:21.028Z,0.22
2023-01-27T00:15:51.562Z,0.22
2023-01-27T00:18:21.990Z,0.2
2023-01-27T00:20:52.613Z,0.2
2023-01-27T00:23:22.742Z,0.21
2023-01-27T00:25:52.979Z,0.21
2023-01-27T00:28:23.198Z,0.21
2023-01-27T00:30:54.213Z,0.2
2023-01-27T00:33:24.262Z,0.21
2023-01-27T00:35:54.283Z,0.19
2023-01-27T00:38:24.397Z,0.2
2023-01-27T00:40:54.571Z,0.21
2023-01-27T00:43:25.204Z,0.2
2023-01-27T00:45:55.334Z,0.19
2023-01-27T00:48:25.820Z,0.2
2023-01-27T00:50:56.050Z,0.21
2023-01-27T00:53:26.096Z,0.21
2023-01-27T00:55:56.809Z,0.21
2023-01-27T00:58:27.591Z,0.21
2023-01-27T01:00:58.016Z,0.2
2023-01-27T01:03:28.072Z,0.21
2023-01-27T01:05:58.604Z,0.21
2023-01-27T01:08:29.154Z,0.21
2023-01-27T01:10:59.846Z,0.21
2023-01-27T01:13:30.730Z,0.2
2023-01-27T01:16:01.036Z,0.2
2023-01-27T01:18:31.907Z,0.2
2023-01-27T01:21:02.675Z,0.21
2023-01-27T01:23:33.153Z,0.22
2023-01-27T01:26:03.657Z,0.22
2023-01-27T01:28:34.550Z,0.23
2023-01-27T01:31:04.867Z,0.2
2023-01-27T01:33:35.466Z,0.22
2023-01-27T01:36:05.720Z,0.22
2023-01-27T01:38:36.207Z,0.22
2023-01-27T01:41:06.468Z,0.22
2023-01-27T01:43:36.904Z,0.21
2023-01-27T01:46:07.458Z,0.22
2023-01-27T01:48:37.981Z,0.22
2023-01-27T01:51:08.595Z,0.22
2023-01-27T01:53:38.816Z,0.22
2023-01-27T01:56:09.272Z,0.21
2023-01-27T01:58:40.042Z,0.22
2023-01-27T02:01:10.575Z,0.21
2023-01-27T02:03:41.121Z,0.19
2023-01-27T02:06:11.653Z,0.2
2023-01-27T02:08:42.109Z,0.19
2023-01-27T02:11:12.522Z,0.18
2023-01-27T02:13:43.231Z,0.18
2023-01-27T02:16:13.817Z,0.18
2023-01-27T02:18:43.675Z,0.18
2023-01-27T02:21:13.899Z,0.19
2023-01-27T02:23:44.534Z,0.19
2023-01-27T02:26:15.196Z,0.19
2023-01-27T02:28:45.745Z,0.19
2023-01-27T02:31:16.758Z,0.18
2023-01-27T02:33:47.059Z,0.19
2023-01-27T02:36:17.658Z,0.18
2023-01-27T02:38:48.147Z,0.18
2023-01-27T02:41:18.623Z,0.18
2023-01-27T02:43:49.079Z,0.17
2023-01-27T02:46:19.921Z,0.18
2023-01-27T02:48:50.751Z,0.16
2023-01-27T02:51:21.505Z,0.17
2023-01-27T02:53:52.421Z,0.19
2023-01-27T02:56:22.585Z,0.19
2023-01-27T02:58:52.726Z,0.19
2023-01-27T03:01:23.593Z,0.19
2023-01-27T03:03:54.338Z,0.19
2023-01-27T03:06:25.118Z,0.2
2023-01-27T03:08:55.282Z,0.19
2023-01-27T03:11:25.817Z,0.19
2023-01-27T03:13:56.601Z,0.18
2023-01-27T03:16:27.410Z,0.18
2023-01-27T03:18:57.909Z,0.17
2023-01-27T03:21:28.860Z,0.17
2023-01-27T03:23:58.926Z,0.17
2023-01-27T03:26:29.833Z,0.17
2023-01-27T03:29:00.529Z,0.16
2023-01-27T03:31:31.469Z,0.16
2023-01-27T03:34:02.113Z,0.16
2023-01-27T03:36:32.864Z,0.16
2023-01-27T03:39:03.650Z,0.16
2023-01-27T03:41:34.484Z,0.16
2023-01-27T03:44:04.730Z,0.16
2023-01-27T03:46:35.533Z,0.16
2023-01-27T03:49:06.357Z,0.16
2023-01-27T03:51:37.172Z,0.16
2023-01-27T03:54:07.961Z,0.16
2023-01-27T03:56:38.782Z,0.15
2023-01-27T03:59:09.598Z,0.15
2023-01-27T04:01:39.886Z,0.15
2023-01-27T04:04:10.058Z,0.15
2023-01-27T04:06:40.859Z,0.14
2023-01-27T04:09:11.638Z,0.14
2023-01-27T04:11:42.472Z,0.14
2023-01-27T04:14:13.275Z,0.14
2023-01-27T04:16:44.067Z,0.15
2023-01-27T04:19:14.864Z,0.15
2023-01-27T04:21:45.696Z,0.15
2023-01-27T04:24:16.573Z,0.15
2023-01-27T04:26:46.691Z,0.15
2023-01-27T04:29:17.493Z,0.15
2023-01-27T04:31:48.139Z,0.15
2023-01-27T04:34:18.843Z,0.14
2023-01-27T04:36:49.774Z,0.14
2023-01-27T04:39:19.844Z,0.15
2023-01-27T04:41:50.682Z,0.15
2023-01-27T04:44:21.514Z,0.15
2023-01-27T04:46:52.410Z,0.15
2023-01-27T04:49:23.128Z,0.15
2023-01-27T04:51:53.976Z,0.15
2023-01-27T04:54:24.781Z,0.15
2023-01-27T04:56:55.650Z,0.15
2023-01-27T04:59:26.525Z,0.15
2023-01-27T05:01:57.317Z,0.15
2023-01-27T05:04:27.375Z,0.13
2023-01-27T05:06:57.487Z,0.15
2023-01-27T05:09:28.297Z,0.16
2023-01-27T05:11:59.121Z,0.16
2023-01-27T05:14:29.951Z,0.16
2023-01-27T05:17:00.825Z,0.17
2023-01-27T05:19:31.615Z,0.17
2023-01-27T05:22:01.758Z,0.17
2023-01-27T05:24:32.226Z,0.17
2023-01-27T05:27:03.037Z,0.18
2023-01-27T05:29:34.078Z,0.18
2023-01-27T05:32:04.792Z,0.18
2023-01-27T05:34:35.554Z,0.18
2023-01-27T05:37:06.426Z,0.17
2023-01-27T05:39:37.247Z,0.19
2023-01-27T05:42:08.131Z,0.18
2023-01-27T05:44:38.976Z,0.18
2023-01-27T05:47:09.821Z,0.19
2023-01-27T05:49:40.575Z,0.19
2023-01-27T05:52:11.413Z,0.18
2023-01-27T05:54:42.242Z,0.18
2023-01-27T05:57:13.167Z,0.18
2023-01-27T05:59:43.909Z,0.18
2023-01-27T06:02:14.856Z,0.18
2023-01-27T06:04:45.564Z,0.18
2023-01-27T06:07:16.421Z,0.18
2023-01-27T06:09:47.235Z,0.17
2023-01-27T06:12:18.184Z,0.17
2023-01-27T06:14:48.900Z,0.17
2023-01-27T06:17:19.733Z,0.18
2023-01-27T06:19:50.540Z,0.18
2023-01-27T06:22:21.413Z,0.18
2023-01-27T06:24:51.888Z,0.17
2023-01-27T06:27:22.703Z,0.18
2023-01-27T06:29:53.543Z,0.18
2023-01-27T06:32:24.373Z,0.18
2023-01-27T06:34:55.178Z,0.18
2023-01-27T06:37:26.031Z,0.18
2023-01-27T06:39:56.842Z,0.17
2023-01-27T06:42:27.672Z,0.17
2023-01-27T06:44:58.497Z,0.18
2023-01-27T06:47:29.388Z,0.19
2023-01-27T06:50:00.203Z,0.18
2023-01-27T06:52:30.993Z,0.18
2023-01-27T06:55:01.802Z,0.18
2023-01-27T06:57:32.644Z,0.17
2023-01-27T07:00:02.752Z,0.12
2023-01-27T07:02:32.932Z,0.11
2023-01-27T07:05:03.082Z,0.14
2023-01-27T07:07:33.899Z,0.14
2023-01-27T07:10:04.446Z,0.16
2023-01-27T07:12:34.491Z,0.15
2023-01-27T07:15:05.319Z,0.15
2023-01-27T07:17:35.848Z,0.16
2023-01-27T07:20:06.619Z,0.15
2023-01-27T07:22:37.481Z,0.15
2023-01-27T07:25:08.288Z,0.15
2023-01-27T07:27:38.884Z,0.14
2023-01-27T07:30:09.625Z,0.14
2023-01-27T07:32:40.136Z,0.15
2023-01-27T07:35:10.957Z,0.15
2023-01-27T07:37:41.525Z,0.14
2023-01-27T07:40:12.718Z,0.14
2023-01-27T07:42:42.880Z,0.15
2023-01-27T07:45:13.608Z,0.14
2023-01-27T07:47:44.547Z,0.15
2023-01-27T07:50:15.493Z,0.14
2023-01-27T07:52:46.069Z,0.14
2023-01-27T07:55:16.590Z,0.14
2023-01-27T07:57:47.481Z,0.15
2023-01-27T08:00:18.231Z,0.15
2023-01-27T08:02:49.091Z,0.15
2023-01-27T08:05:19.829Z,0.15
2023-01-27T08:07:50.690Z,0.16
2023-01-27T08:10:21.461Z,0.15
2023-01-27T08:12:52.070Z,0.15
2023-01-27T08:15:22.434Z,0.16
2023-01-27T08:17:53.253Z,0.16
2023-01-27T08:20:23.787Z,0.16
2023-01-27T08:22:54.609Z,0.16
2023-01-27T08:25:25.356Z,0.16
2023-01-27T08:27:56.164Z,0.16
2023-01-27T08:30:27.085Z,0.16
2023-01-27T08:32:57.657Z,0.15
2023-01-27T08:35:27.936Z,0.15
2023-01-27T08:37:58.754Z,0.15
2023-01-27T08:40:29.260Z,0.16
2023-01-27T08:43:00.105Z,0.16
2023-01-27T08:45:30.873Z,0.15
2023-01-27T08:48:01.675Z,0.15
2023-01-27T08:50:32.191Z,0.15
2023-01-27T08:53:02.999Z,0.14
2023-01-27T08:55:33.803Z,0.14
2023-01-27T08:58:04.608Z,0.15
2023-01-27T09:00:35.077Z,0.15
2023-01-27T09:03:05.873Z,0.15
2023-01-27T09:05:36.751Z,0.15
2023-01-27T09:08:07.215Z,0.15
2023-01-27T09:10:37.976Z,0.16
2023-01-27T09:13:08.820Z,0.15
2023-01-27T09:15:39.592Z,0.15
2023-01-27T09:18:10.121Z,0.15
2023-01-27T09:20:40.886Z,0.15
2023-01-27T09:23:11.434Z,0.15
2023-01-27T09:25:41.882Z,0.15
2023-01-27T09:28:12.654Z,0.16
2023-01-27T09:30:45.817Z,0.15
2023-01-27T09:33:14.705Z,0.16
2023-01-27T09:35:44.465Z,0.16
2023-01-27T09:38:15.252Z,0.15
2023-01-27T09:40:46.016Z,0.16
2023-01-27T09:43:16.815Z,0.15
2023-01-27T09:45:47.416Z,0.15
2023-01-27T09:48:18.023Z,0.16
2023-01-27T09:50:48.496Z,0.16
2023-01-27T09:53:19.283Z,0.16
2023-01-27T09:55:50.130Z,0.15
2023-01-27T09:58:20.851Z,0.15
2023-01-27T10:00:51.706Z,0.16
2023-01-27T10:03:21.776Z,0.15
2023-01-27T10:05:52.267Z,0.16
2023-01-27T10:08:23.054Z,0.18
2023-01-27T10:10:53.824Z,0.17
2023-01-27T10:13:24.636Z,0.18
2023-01-27T10:15:55.476Z,0.19
2023-01-27T10:18:26.267Z,0.17
2023-01-27T10:20:56.798Z,0.18
2023-01-27T10:23:27.638Z,0.17
2023-01-27T10:25:58.475Z,0.16
2023-01-27T10:28:28.985Z,0.15
2023-01-27T10:30:59.658Z,0.14
2023-01-27T10:33:30.371Z,0.16
2023-01-27T10:36:00.916Z,0.16
2023-01-27T10:38:31.486Z,0.16
2023-01-27T10:41:02.325Z,0.17
2023-01-27T10:43:32.568Z,0.17
2023-01-27T10:46:03.484Z,0.15
2023-01-27T10:48:34.206Z,0.17
2023-01-27T10:51:05.007Z,0.18
2023-01-27T10:53:35.483Z,0.17
2023-01-27T10:56:06.280Z,0.17
2023-01-27T10:58:36.829Z,0.16
2023-01-27T11:01:21.808Z,0.18
2023-01-27T11:03:38.436Z,0.18
2023-01-27T11:06:09.236Z,0.17
2023-01-27T11:08:39.790Z,0.18
2023-01-27T11:11:10.241Z,0.17
2023-01-27T11:13:40.531Z,0.18
2023-01-27T11:16:11.352Z,0.16
2023-01-27T11:18:42.105Z,0.16
2023-01-27T11:21:12.643Z,0.16
2023-01-27T11:23:43.427Z,0.16
2023-01-27T11:26:13.843Z,0.17
2023-01-27T11:28:44.679Z,0.17
2023-01-27T11:31:15.704Z,0.17
2023-01-27T11:33:46.381Z,0.18
2023-01-27T11:36:17.155Z,0.17
2023-01-27T11:38:47.901Z,0.18
2023-01-27T11:41:18.716Z,0.18
2023-01-27T11:43:49.567Z,0.18
2023-01-27T11:46:20.124Z,0.17
2023-01-27T11:48:50.202Z,0.16
2023-01-27T11:51:21.093Z,0.17
2023-01-27T11:53:51.243Z,0.17
2023-01-27T11:56:22.016Z,0.18
2023-01-27T11:58:52.818Z,0.19
2023-01-27T12:01:23.265Z,0.18
2023-01-27T12:03:54.212Z,0.18
2023-01-27T12:06:24.577Z,0.19
2023-01-27T12:08:55.118Z,0.17
2023-01-27T12:11:25.900Z,0.19
2023-01-27T12:13:56.375Z,0.18
2023-01-27T12:16:26.893Z,0.17
2023-01-27T12:18:57.428Z,0.16
2023-01-27T12:21:27.866Z,0.18
2023-01-27T12:23:58.720Z,0.17
2023-01-27T12:26:29.233Z,0.18
2023-01-27T12:28:59.987Z,0.19
2023-01-27T12:31:31.017Z,0.19
2023-01-27T12:34:01.585Z,0.19
2023-01-27T12:36:32.086Z,0.19
2023-01-27T12:39:02.979Z,0.2
2023-01-27T12:41:33.668Z,0.2
2023-01-27T12:44:04.138Z,0.2
2023-01-27T12:46:34.706Z,0.21
2023-01-27T12:49:05.218Z,0.2
2023-01-27T12:51:35.959Z,0.2
2023-01-27T12:54:06.433Z,0.21
2023-01-27T12:56:36.941Z,0.2
2023-01-27T12:59:07.755Z,0.2
2023-01-27T13:01:38.645Z,0.21
2023-01-27T13:04:09.295Z,0.21
2023-01-27T13:06:40.097Z,0.22
2023-01-27T13:09:10.641Z,0.22
2023-01-27T13:11:41.454Z,0.22
2023-01-27T13:14:12.002Z,0.22
2023-01-27T13:16:42.808Z,0.22
2023-01-27T13:19:13.605Z,0.22
2023-01-27T13:21:44.516Z,0.21
2023-01-27T13:24:15.271Z,0.21
2023-01-27T13:26:45.983Z,0.21
2023-01-27T13:29:16.508Z,0.23
2023-01-27T13:31:47.195Z,0.21
2023-01-27T13:34:17.748Z,0.23
2023-01-27T13:36:48.548Z,0.23
2023-01-27T13:39:19.459Z,0.23
2023-01-27T13:41:50.148Z,0.23
2023-01-27T13:44:20.970Z,0.22
2023-01-27T13:46:51.839Z,0.22
2023-01-27T13:49:22.578Z,0.2
2023-01-27T13:51:53.357Z,0.2
2023-01-27T13:54:24.180Z,0.19
2023-01-27T13:56:54.940Z,0.21
2023-01-27T13:59:25.744Z,0.22
2023-01-27T14:01:56.624Z,0.21
2023-01-27T14:04:27.332Z,0.2
2023-01-27T14:06:58.073Z,0.21
2023-01-27T14:09:28.970Z,0.22
2023-01-27T14:11:59.632Z,0.21
2023-01-27T14:14:30.543Z,0.23
2023-01-27T14:17:01.335Z,0.21
2023-01-27T14:19:32.120Z,0.23
2023-01-27T14:22:02.860Z,0.24
2023-01-27T14:24:33.346Z,0.24
2023-01-27T14:27:04.096Z,0.22
2023-01-27T14:29:34.955Z,0.23
2023-01-27T14:32:05.846Z,0.24
2023-01-27T14:34:36.586Z,0.24
2023-01-27T14:37:07.430Z,0.23
2023-01-27T14:39:38.099Z,0.24
2023-01-27T14:42:08.933Z,0.23
2023-01-27T14:44:43.969Z,0.22
2023-01-27T14:47:10.452Z,0.24
2023-01-27T14:49:41.233Z,0.23
2023-01-27T14:52:12.016Z,0.23
2023-01-27T14:54:42.828Z,0.24
2023-01-27T14:57:13.610Z,0.22
2023-01-27T14:59:44.391Z,0.22
2023-01-27T15:02:15.317Z,0.21
2023-01-27T15:04:46.082Z,0.2
2023-01-27T15:07:16.797Z,0.19
2023-01-27T15:09:47.500Z,0.21
2023-01-27T15:12:18.239Z,0.21
2023-01-27T15:14:49.076Z,0.21
2023-01-27T15:17:19.914Z,0.19
2023-01-27T15:19:50.597Z,0.21
2023-01-27T15:22:21.373Z,0.22
2023-01-27T15:24:52.138Z,0.21
2023-01-27T15:27:22.917Z,0.23
2023-01-27T15:29:53.714Z,0.22
2023-01-27T15:32:24.636Z,0.2
2023-01-27T15:34:55.290Z,0.21
2023-01-27T15:37:26.132Z,0.22
2023-01-27T15:40:04.321Z,0.22
2023-01-27T15:42:27.338Z,0.21
2023-01-27T15:44:58.209Z,0.21
2023-01-27T15:47:29.014Z,0.19
2023-01-27T15:49:59.782Z,0.2
2023-01-27T15:52:30.521Z,0.2
2023-01-27T15:55:00.781Z,0.18
2023-01-27T15:57:31.283Z,0.2
2023-01-27T16:00:02.066Z,0.21
2023-01-27T16:02:32.679Z,0.22
2023-01-27T16:05:03.149Z,0.2
2023-01-27T16:07:33.664Z,0.21
2023-01-27T16:10:04.316Z,0.21
2023-01-27T16:12:34.210Z,0.21
2023-01-27T16:15:05.069Z,0.21
2023-01-27T16:17:35.965Z,0.2
2023-01-27T16:20:06.316Z,0.2
2023-01-27T16:22:36.414Z,0.19
2023-01-27T16:25:06.754Z,0.17
2023-01-27T16:27:37.754Z,0.19
2023-01-27T16:30:08.344Z,0.19
2023-01-27T16:32:38.280Z,0.19
2023-01-27T16:35:08.654Z,0.17
2023-01-27T16:37:38.934Z,0.19
2023-01-27T16:40:09.559Z,0.2
2023-01-27T16:42:40.015Z,0.19
2023-01-27T16:45:11.299Z,0.19
2023-01-27T16:47:41.153Z,0.21
2023-01-27T16:50:11.997Z,0.21
2023-01-27T16:52:42.678Z,0.21
2023-01-27T16:55:12.515Z,0.2
2023-01-27T16:57:42.447Z,0.21
2023-01-27T17:00:12.435Z,0.22
2023-01-27T17:02:42.718Z,0.21
2023-01-27T17:05:13.603Z,0.21
2023-01-27T17:07:43.183Z,0.22
2023-01-27T17:10:18.926Z,0.22
2023-01-27T17:12:44.273Z,0.2
2023-01-27T17:15:14.874Z,0.17
2023-01-27T17:17:44.712Z,0.19
2023-01-27T17:20:15.626Z,0.22
2023-01-27T17:22:46.191Z,0.21
2023-01-27T17:25:16.656Z,0.24
2023-01-27T17:27:46.716Z,0.22
2023-01-27T17:30:17.788Z,0.23
2023-01-27T17:32:48.360Z,0.22
2023-01-27T17:35:18.869Z,0.22
2023-01-27T17:37:49.671Z,0.21
2023-01-27T17:40:19.907Z,0.19
2023-01-27T17:42:50.331Z,0.18
2023-01-27T17:45:20.920Z,0.19
2023-01-27T17:47:51.181Z,0.22
2023-01-27T17:50:21.580Z,0.19
2023-01-27T17:52:52.986Z,0.19
2023-01-27T17:55:22.662Z,0.19
2023-01-27T17:57:53.183Z,0.22
2023-01-27T18:00:23.676Z,0.23
2023-01-27T18:02:54.075Z,0.22
2023-01-27T18:05:23.867Z,0.22
2023-01-27T18:07:54.486Z,0.2
2023-01-27T18:10:24.930Z,0.21
2023-01-27T18:12:55.448Z,0.2
2023-01-27T18:15:26.083Z,0.19
2023-01-27T18:17:56.401Z,0.19
2023-01-27T18:20:27.043Z,0.18
2023-01-27T18:22:57.317Z,0.17
2023-01-27T18:25:27.549Z,0.17
2023-01-27T18:27:57.664Z,0.17
2023-01-27T18:30:31.408Z,0.16
2023-01-27T18:32:58.747Z,0.17
2023-01-27T18:35:29.562Z,0.19
2023-01-27T18:38:00.382Z,0.2
2023-01-27T18:40:30.878Z,0.19
2023-01-27T18:43:01.681Z,0.2
2023-01-27T18:45:32.149Z,0.2
2023-01-27T18:48:02.433Z,0.22
2023-01-27T18:50:33.225Z,0.21
2023-01-27T18:53:03.813Z,0.2
2023-01-27T18:55:34.093Z,0.2
2023-01-27T18:58:04.657Z,0.2
2023-01-27T19:00:35.017Z,0.19
2023-01-27T19:03:05.512Z,0.2
2023-01-27T19:05:36.270Z,0.22
2023-01-27T19:08:06.826Z,0.24
2023-01-27T19:10:37.637Z,0.23
2023-01-27T19:13:08.501Z,0.24
2023-01-27T19:15:39.277Z,0.24
2023-01-27T19:18:10.121Z,0.24
2023-01-27T19:20:40.867Z,0.23
2023-01-27T19:23:11.188Z,0.23
2023-01-27T19:25:41.347Z,0.22
2023-01-27T19:28:11.577Z,0.23
2023-01-27T19:30:42.126Z,0.22
2023-01-27T19:33:12.976Z,0.22
2023-01-27T19:35:43.457Z,0.22
2023-01-27T19:38:14.051Z,0.22
2023-01-27T19:40:44.049Z,0.22
2023-01-27T19:43:14.903Z,0.23
2023-01-27T19:45:45.470Z,0.23
2023-01-27T19:48:15.936Z,0.25
2023-01-27T19:50:45.911Z,0.26
2023-01-27T19:53:16.599Z,0.26
2023-01-27T19:55:47.299Z,0.24
2023-01-27T19:58:17.879Z,0.22
2023-01-27T20:00:48.871Z,0.22
2023-01-27T20:03:19.563Z,0.23
2023-01-27T20:05:49.639Z,0.23
2023-01-27T20:08:19.934Z,0.22
2023-01-27T20:10:50.374Z,0.21
2023-01-27T20:13:20.403Z,0.21
2023-01-27T20:15:50.406Z,0.21
2023-01-27T20:18:23.778Z,0.21
2023-01-27T20:20:51.914Z,0.2
2023-01-27T20:23:22.699Z,0.21
2023-01-27T20:25:53.471Z,0.2
2023-01-27T20:28:24.065Z,0.2
2023-01-27T20:30:55.007Z,0.21
2023-01-27T20:33:25.790Z,0.21
2023-01-27T20:35:55.812Z,0.22
2023-01-27T20:38:26.238Z,0.22
2023-01-27T20:40:56.855Z,0.24
2023-01-27T20:43:35.240Z,0.23
2023-01-27T20:45:58.128Z,0.24
2023-01-27T20:48:28.673Z,0.22
2023-01-27T20:50:58.660Z,0.21
2023-01-27T20:53:29.059Z,0.23
2023-01-27T20:55:59.201Z,0.23
2023-01-27T20:58:29.358Z,0.23
2023-01-27T21:01:00.168Z,0.24
2023-01-27T21:03:30.995Z,0.24
2023-01-27T21:06:01.476Z,0.24
2023-01-27T21:08:32.080Z,0.25
2023-01-27T21:11:02.651Z,0.26
2023-01-27T21:13:33.551Z,0.25
2023-01-27T21:16:04.397Z,0.26
2023-01-27T21:18:35.302Z,0.25
2023-01-27T21:21:05.800Z,0.28
2023-01-27T21:23:35.841Z,0.25
2023-01-27T21:26:05.850Z,0.26
2023-01-27T21:28:36.401Z,0.26
2023-01-27T21:31:07.149Z,0.26
2023-01-27T21:33:37.626Z,0.26
2023-01-27T21:36:10.409Z,0.25
2023-01-27T21:38:39.380Z,0.27
2023-01-27T21:41:09.859Z,0.26
2023-01-27T21:43:39.894Z,0.26
2023-01-27T21:46:10.510Z,0.26
2023-01-27T21:48:41.280Z,0.19
2023-01-27T21:51:11.840Z,0.22
2023-01-27T21:53:42.727Z,0.26
2023-01-27T21:56:13.587Z,0.28
2023-01-27T21:58:44.478Z,0.27
2023-01-27T22:01:15.383Z,0.29
2023-01-27T22:03:46.000Z,0.25
2023-01-27T22:06:16.216Z,0.26
2023-01-27T22:08:46.708Z,0.25
2023-01-27T22:11:17.286Z,0.24
2023-01-27T22:13:48.099Z,0.27
2023-01-27T22:16:18.154Z,0.23
2023-01-27T22:18:49.063Z,0.23
2023-01-27T22:21:19.193Z,0.23
2023-01-27T22:23:49.468Z,0.24
2023-01-27T22:26:20.740Z,0.24
2023-01-27T22:28:49.874Z,0.25
2023-01-27T22:31:20.254Z,0.25
2023-01-27T22:33:50.554Z,0.26
2023-01-27T22:36:21.133Z,0.26
2023-01-27T22:38:51.888Z,0.21
2023-01-27T22:41:22.418Z,0.24
2023-01-27T22:43:53.050Z,0.23
2023-01-27T22:46:23.783Z,0.21
2023-01-27T22:48:53.864Z,0.27
2023-01-27T22:51:24.336Z,0.27
2023-01-27T22:53:54.687Z,0.25
2023-01-27T22:56:24.817Z,0.23
2023-01-27T22:58:55.206Z,0.24
2023-01-27T23:01:25.947Z,0.23
2023-01-27T23:03:56.304Z,0.22
2023-01-27T23:06:27.022Z,0.22
2023-01-27T23:08:57.603Z,0.22
2023-01-27T23:11:28.169Z,0.27
2023-01-27T23:13:58.970Z,0.25
2023-01-27T23:16:29.153Z,0.25
2023-01-27T23:18:59.769Z,0.19
2023-01-27T23:21:30.351Z,0.24
2023-01-27T23:24:00.820Z,0.25
2023-01-27T23:26:31.097Z,0.3
2023-01-27T23:29:01.675Z,0.26
2023-01-27T23:31:32.010Z,0.25
2023-01-27T23:34:02.045Z,0.24
2023-01-27T23:36:32.186Z,0.25
2023-01-27T23:39:02.921Z,0.26
2023-01-27T23:41:33.506Z,0.26
2023-01-27T23:44:04.114Z,0.29
2023-01-27T23:46:34.594Z,0.29
2023-01-27T23:49:05.146Z,0.26
2023-01-27T23:51:35.839Z,0.3
2023-01-27T23:54:05.896Z,0.31
2023-01-27T23:56:36.194Z,0.3
2023-01-27T23:59:06.943Z,0.27
